메인 페이지
METAR-TAF:

METAR-TAF

공항 :

캔자스시티, 미주리, 미국

위도: 39-17-50N, 경도: 094-43-50W, 고도: 312m

현재 날씨관측

예보는 1 시간 2분 전, 09:53시(UTC)에 발표되었습니다.
남남서5kt
온도 2°C
습도 75%
기압 1019 hPa
시정: 16.1km
고도 6000ft 상공 흐림

METAR: KMCI 280953Z 20005KT 10SM OVC060 02/M02 A3010 RMK AO2 SLP201 T00221017 $

시각: 05:55 (10:55 UTC)

예보

예보는 5 시간 35분 전, 05:20시(UTC)에 발표되었습니다.
예보 대상 시간: 28일 06시부터 29일 06시까지 (UTC)
남서5kt
시정: 10km
고도 5000ft 상공 흐림
28일 1500시부터 (UTC)
서남서5kt
시정: 10km
고도 10000ft 상공 구름 많음
28일 2000시부터 (UTC)
북동5kt
시정: 10km
고도 10000ft 상공 흐림
29일 0400시부터 (UTC)
북북동8kt
시정: 10km
고도 5000ft 상공 흐림
시계 내 소나기

TAF: KMCI 280520Z 2806/2906 22005KT P6SM OVC050 FM281500 25005KT P6SM BKN100 FM282000 04005KT P6SM OVC100 FM290400 03008KT P6SM VCSH OVC050

4,000개 이상의 공항 관측 자료 및 예보 (METAR 및 TAF 보고).

지도상에서 검색 가능한 기상관측소가 노란 점과 빨간 점으로 표시되어 있습니다.

기상관측소 명을 보려면 표시 위로 마우스를 이동하세요.

날씨 관측과 예보를 보려면 클릭하세요.

지도 변경 : 확대하려면 엑스 표시가 있는 녹색 버튼, 축소하려면 빼기 표시가 있는 녹색 버튼, 다음 페이지의 지도를 보려면 녹색 화살표를 클릭하세요.


METAR-TAF: